Time;durP1;ratioP1;P1;durP2;ratioP2;P2;SDS_P1;SDS_P2;PMS_P1;PMS_P2;Temp;Humidity;BMP_temperature;BMP_pressure;BME280_temperature;BME280_humidity;BME280_pressure;Samples;Min_cycle;Max_cycle;Signal;HPM_P1;HPM_P2
2022/01/04 00:01:07;;;;;;;2.02;1.62;;;;;;;11.39;57.48;98272.14;1801314;76;21024;-60
2022/01/04 00:03:34;;;;;;;3.70;1.77;;;;;;;11.39;57.48;98274.80;1809226;76;21117;-59
2022/01/04 00:06:01;;;;;;;2.40;1.70;;;;;;;11.39;57.49;98276.94;1801213;78;21052;-59
2022/01/04 00:08:27;;;;;;;2.05;1.60;;;;;;;11.40;57.49;98276.44;1816571;76;20992;-60
2022/01/04 00:11:06;;;;;;;1.40;1.30;;;;;;;11.39;57.50;98282.77;1808431;78;21042;-60
2022/01/04 00:13:24;;;;;;;1.82;1.65;;;;;;;11.40;57.50;98283.09;1809725;77;21031;-60
2022/01/04 00:15:55;;;;;;;1.85;1.45;;;;;;;11.39;57.50;98275.60;1826779;77;20986;-60
2022/01/04 00:18:24;;;;;;;1.62;1.52;;;;;;;11.40;57.51;98292.39;1824216;77;21075;-61
2022/01/04 00:20:51;;;;;;;2.85;1.65;;;;;;;11.39;57.54;98282.77;1828263;77;21104;-60
2022/01/04 00:23:17;;;;;;;1.80;1.65;;;;;;;11.40;57.51;98295.05;1814946;78;21034;-61
2022/01/04 00:25:44;;;;;;;1.87;1.62;;;;;;;11.39;57.55;98294.73;1811597;78;21608;-61
2022/01/04 00:28:12;;;;;;;1.67;1.40;;;;;;;11.39;57.55;98297.39;1804819;76;21007;-59
2022/01/04 00:30:39;;;;;;;1.90;1.60;;;;;;;11.39;57.56;98302.72;1806009;78;21025;-59
2022/01/04 00:33:09;;;;;;;1.77;1.57;;;;;;;11.39;57.55;98302.72;1814001;76;21076;-59
2022/01/04 00:35:36;;;;;;;2.25;1.60;;;;;;;11.39;57.54;98309.36;1806142;78;21125;-60
2022/01/04 00:38:02;;;;;;;1.95;1.60;;;;;;;11.39;57.56;98314.16;1809155;76;21073;-60
2022/01/04 00:40:29;;;;;;;2.08;1.85;;;;;;;11.39;57.55;98308.84;1802506;78;21936;-59
2022/01/04 00:42:57;;;;;;;2.72;1.67;;;;;;;11.39;57.55;98310.69;1813961;77;21096;-61
2022/01/04 00:45:25;;;;;;;1.82;1.55;;;;;;;11.39;57.56;98308.84;1805188;76;21069;-59
2022/01/04 00:50:23;;;;;;;2.42;1.82;;;;;;;11.39;57.57;98314.68;1799051;78;21005;-59
2022/01/04 00:52:50;;;;;;;2.02;1.30;;;;;;;11.39;57.57;98312.83;1823609;77;21135;-61
2022/01/04 00:55:17;;;;;;;2.60;1.77;;;;;;;11.38;57.57;98308.55;1818679;76;21104;-61
2022/01/04 00:57:44;;;;;;;1.87;1.50;;;;;;;11.39;57.57;98316.01;1816525;78;21528;-59
2022/01/04 01:00:13;;;;;;;1.72;1.55;;;;;;;11.40;57.56;98316.33;1812689;78;21108;-61
2022/01/04 01:02:41;;;;;;;1.65;1.52;;;;;;;11.39;57.57;98317.34;1826450;78;21049;-61
2022/01/04 01:05:08;;;;;;;1.50;1.35;;;;;;;11.39;57.57;98320.00;1806891;77;21143;-60
2022/01/04 01:07:35;;;;;;;1.67;1.57;;;;;;;11.39;57.57;98314.68;1808883;76;21514;-59
2022/01/04 01:12:54;;;;;;;1.60;1.50;;;;;;;11.38;57.57;98320.52;1801929;78;21014;-61
2022/01/04 01:15:21;;;;;;;1.75;1.65;;;;;;;11.38;57.59;98320.52;1798657;78;21026;-60
2022/01/04 01:17:49;;;;;;;1.72;1.55;;;;;;;11.38;57.59;98325.03;1796735;78;21271;-60
2022/01/04 01:20:17;;;;;;;1.67;1.50;;;;;;;11.38;57.60;98327.69;1826184;76;21023;-60
2022/01/04 01:22:46;;;;;;;1.95;1.50;;;;;;;11.38;57.59;98327.69;1800953;76;21038;-60
2022/01/04 01:25:13;;;;;;;2.33;1.70;;;;;;;11.37;57.62;98326.84;1822730;77;21027;-60
2022/01/04 01:27:42;;;;;;;1.60;1.50;;;;;;;11.37;57.63;98322.05;1811369;78;21015;-60
2022/01/04 01:30:10;;;;;;;2.30;1.65;;;;;;;11.37;57.61;98326.03;1803749;77;21484;-59
2022/01/04 01:32:38;;;;;;;1.62;1.45;;;;;;;11.36;57.64;98317.77;1829023;77;21082;-62
2022/01/04 01:35:05;;;;;;;1.87;1.45;;;;;;;11.36;57.64;98321.24;1812488;77;21518;-61
2022/01/04 01:37:34;;;;;;;1.85;1.75;;;;;;;11.35;57.66;98325.43;1807731;76;21067;-60
2022/01/04 01:40:06;;;;;;;1.90;1.70;;;;;;;11.36;57.64;98319.10;1817120;77;21042;-60
2022/01/04 01:42:34;;;;;;;1.65;1.47;;;;;;;11.36;57.64;98328.41;1819352;78;21050;-64
2022/01/04 01:45:00;;;;;;;3.05;2.08;;;;;;;11.36;57.65;98329.73;1810440;76;21498;-61
2022/01/04 01:47:26;;;;;;;1.90;1.60;;;;;;;11.35;57.65;98323.58;1824935;76;21042;-60
2022/01/04 01:49:53;;;;;;;1.92;1.35;;;;;;;11.35;57.65;98324.91;1818639;78;21491;-59
2022/01/04 01:52:19;;;;;;;1.70;1.60;;;;;;;11.36;57.65;98328.41;1817511;77;20995;-60
2022/01/04 01:54:46;;;;;;;1.80;1.45;;;;;;;11.35;57.65;98326.76;1811093;78;21910;-60
2022/01/04 01:57:13;;;;;;;2.52;1.90;;;;;;;11.36;57.66;98332.40;1822008;76;21051;-60
2022/01/04 01:59:39;;;;;;;2.15;1.67;;;;;;;11.36;57.66;98331.06;1818598;77;21004;-60
2022/01/04 02:02:06;;;;;;;2.10;1.90;;;;;;;11.35;57.66;98328.90;1802312;77;21082;-60
2022/01/04 02:04:33;;;;;;;2.00;1.72;;;;;;;11.35;57.66;98330.23;1813871;77;21035;-59
2022/01/04 02:07:00;;;;;;;1.57;1.30;;;;;;;11.36;57.65;98337.72;1811058;76;21243;-59
2022/01/04 02:09:26;;;;;;;1.67;1.55;;;;;;;11.35;57.65;98332.08;1830028;77;21078;-60
2022/01/04 02:11:54;;;;;;;1.80;1.47;;;;;;;11.36;57.66;98329.73;1787096;77;21015;-61
2022/01/04 02:14:21;;;;;;;2.00;1.60;;;;;;;11.36;57.66;98331.87;1817267;76;21605;-61
2022/01/04 02:16:48;;;;;;;1.55;1.40;;;;;;;11.36;57.67;98339.05;1800269;77;20999;-61
2022/01/04 02:19:16;;;;;;;1.85;1.60;;;;;;;11.36;57.67;98338.52;1800159;77;21218;-59
2022/01/04 02:21:43;;;;;;;1.47;1.37;;;;;;;11.36;57.68;98341.70;1808171;77;21569;-59
2022/01/04 02:24:10;;;;;;;2.15;1.45;;;;;;;11.37;57.67;98345.98;1801055;78;21053;-60
2022/01/04 02:26:37;;;;;;;1.50;1.40;;;;;;;11.36;57.66;98348.35;1816101;76;21030;-60
2022/01/04 02:29:04;;;;;;;1.98;1.25;;;;;;;11.36;57.66;98347.02;1784362;78;21053;-60
2022/01/04 02:31:30;;;;;;;2.40;1.80;;;;;;;11.36;57.68;98347.02;1796438;78;21151;-60
2022/01/04 02:33:57;;;;;;;1.92;1.70;;;;;;;11.36;57.67;98343.03;1797041;76;21026;-59
2022/01/04 02:36:23;;;;;;;1.72;1.57;;;;;;;11.36;57.66;98345.69;1806564;77;22171;-60
2022/01/04 02:38:53;;;;;;;1.55;1.45;;;;;;;11.36;57.67;98349.67;1806660;76;21097;-61
2022/01/04 02:41:20;;;;;;;1.92;1.72;;;;;;;11.37;57.67;98351.30;1810121;76;21093;-61
2022/01/04 02:43:47;;;;;;;1.70;1.40;;;;;;;11.36;57.66;98358.47;1821881;76;21077;-60
2022/01/04 02:46:14;;;;;;;2.35;1.50;;;;;;;11.37;57.66;98353.95;1814259;78;21731;-60
2022/01/04 02:48:42;;;;;;;1.85;1.50;;;;;;;11.37;57.66;98349.97;1801924;78;21100;-61
2022/01/04 02:51:10;;;;;;;1.72;1.47;;;;;;;11.36;57.66;98353.67;1819124;76;21163;-61
2022/01/04 02:53:37;;;;;;;1.52;1.30;;;;;;;11.36;57.66;98351.81;1817293;77;21306;-61
2022/01/04 02:56:05;;;;;;;1.85;1.57;;;;;;;11.35;57.64;98348.84;1817218;78;21114;-60
2022/01/04 02:58:31;;;;;;;2.17;1.50;;;;;;;11.37;57.65;98354.77;1804953;77;21022;-60
2022/01/04 03:00:58;;;;;;;1.90;1.52;;;;;;;11.38;57.65;98355.60;1805317;77;21197;-61
2022/01/04 03:03:25;;;;;;;1.50;1.30;;;;;;;11.36;57.65;98357.13;1809773;76;21609;-60
2022/01/04 03:05:52;;;;;;;1.55;1.40;;;;;;;11.36;57.65;98355.00;1803494;78;21049;-60
2022/01/04 03:08:20;;;;;;;1.37;1.27;;;;;;;11.36;57.66;98355.00;1827821;76;21776;-60
2022/01/04 03:10:47;;;;;;;1.92;1.35;;;;;;;11.36;57.64;98355.80;1800118;76;21013;-61
2022/01/04 03:13:16;;;;;;;1.67;1.57;;;;;;;11.37;57.66;98362.73;1819129;77;21081;-59
2022/01/04 03:15:44;;;;;;;1.50;1.40;;;;;;;11.36;57.65;98369.10;1816411;76;21014;-60
2022/01/04 03:18:10;;;;;;;1.50;1.40;;;;;;;11.36;57.64;98366.96;1801171;78;21041;-60
2022/01/04 03:20:38;;;;;;;1.75;1.30;;;;;;;11.36;57.64;98363.78;1818828;77;21554;-61
2022/01/04 03:23:09;;;;;;;1.70;1.30;;;;;;;11.37;57.63;98369.39;1800429;77;20985;-60
2022/01/04 03:25:33;;;;;;;1.85;1.40;;;;;;;11.37;57.63;98360.60;1801456;77;21000;-61
2022/01/04 03:27:59;;;;;;;1.92;1.55;;;;;;;11.37;57.63;98367.25;1805251;77;21047;-59
2022/01/04 03:30:26;;;;;;;1.77;1.60;;;;;;;11.37;57.64;98370.72;1804435;77;21050;-61
2022/01/04 03:32:55;;;;;;;1.65;1.25;;;;;;;11.37;57.63;98370.72;1800431;77;23202;-60
2022/01/04 03:35:22;;;;;;;1.77;1.20;;;;;;;11.36;57.62;98377.08;1800829;76;21000;-61
2022/01/04 03:37:50;;;;;;;1.65;1.27;;;;;;;11.36;57.64;98373.09;1824080;78;21117;-59
2022/01/04 03:40:16;;;;;;;1.27;1.12;;;;;;;11.37;57.60;98372.56;1800603;77;21487;-61
2022/01/04 03:42:44;;;;;;;2.77;1.37;;;;;;;11.37;57.63;98375.22;1812502;76;20983;-61
2022/01/04 03:45:11;;;;;;;1.22;1.12;;;;;;;11.37;57.63;98384.53;1801799;77;21152;-61
2022/01/04 03:47:38;;;;;;;1.60;1.35;;;;;;;11.37;57.63;98391.98;1812915;77;21019;-59
2022/01/04 03:50:05;;;;;;;1.30;1.20;;;;;;;11.36;57.61;98394.88;1837429;77;21015;-60
2022/01/04 03:52:35;;;;;;;1.60;1.30;;;;;;;11.36;57.62;98390.38;1813793;78;21019;-60
2022/01/04 03:55:07;;;;;;;1.42;1.17;;;;;;;11.35;57.64;98394.03;1811046;77;21337;-60
2022/01/04 03:57:35;;;;;;;1.52;1.12;;;;;;;11.36;57.65;98394.88;1809649;78;21182;-60
2022/01/04 04:00:05;;;;;;;1.37;1.27;;;;;;;11.35;57.65;98403.34;1810629;77;21621;-59
2022/01/04 04:02:33;;;;;;;1.95;1.55;;;;;;;11.36;57.67;98398.87;1799173;77;21098;-60
2022/01/04 04:04:59;;;;;;;1.45;1.32;;;;;;;11.36;57.65;98401.53;1801493;78;21066;-60
2022/01/04 04:07:29;;;;;;;2.02;1.27;;;;;;;11.36;57.66;98412.16;1806020;76;21290;-61
2022/01/04 04:09:57;;;;;;;1.52;1.32;;;;;;;11.36;57.67;98408.17;1817788;76;21059;-59
2022/01/04 04:12:23;;;;;;;1.98;1.25;;;;;;;11.35;57.67;98414.50;1819292;76;21039;-60
2022/01/04 04:14:51;;;;;;;1.37;1.20;;;;;;;11.35;57.67;98417.16;1815403;77;21023;-60
2022/01/04 04:17:18;;;;;;;1.40;1.20;;;;;;;11.36;57.68;98417.48;1804698;77;21078;-60
2022/01/04 04:19:45;;;;;;;1.50;1.10;;;;;;;11.37;57.67;98417.77;1829581;77;21021;-60
2022/01/04 04:22:11;;;;;;;1.72;1.35;;;;;;;11.36;57.66;98420.14;1804656;78;21139;-59
2022/01/04 04:24:38;;;;;;;2.77;1.50;;;;;;;11.36;57.66;98418.80;1797256;78;21042;-61
2022/01/04 04:27:05;;;;;;;1.20;1.10;;;;;;;11.36;57.68;98420.95;1802269;76;21096;-60
2022/01/04 04:29:33;;;;;;;1.30;1.20;;;;;;;11.36;57.67;98420.95;1816114;76;21029;-61
2022/01/04 04:31:59;;;;;;;1.80;1.27;;;;;;;11.36;57.65;98428.11;1808192;78;21513;-59
2022/01/04 04:34:26;;;;;;;2.00;1.60;;;;;;;11.37;57.65;98424.41;1812312;76;21138;-62
2022/01/04 04:36:52;;;;;;;1.55;1.40;;;;;;;11.37;57.64;98425.75;1812804;76;21569;-61
2022/01/04 04:39:19;;;;;;;1.90;1.30;;;;;;;11.36;57.62;98431.58;1817180;76;21081;-60
2022/01/04 04:41:48;;;;;;;1.42;1.10;;;;;;;11.37;57.65;98433.20;1809707;76;21065;-60
2022/01/04 04:44:14;;;;;;;1.00;1.00;;;;;;;11.37;57.67;98433.20;1805829;77;21057;-60
2022/01/04 04:46:41;;;;;;;1.12;1.02;;;;;;;11.37;57.65;98429.73;1796653;78;23331;-60
2022/01/04 04:49:07;;;;;;;1.52;1.32;;;;;;;11.36;57.66;98432.91;1817511;77;21013;-60
2022/01/04 04:51:34;;;;;;;1.37;1.27;;;;;;;11.37;57.66;98441.17;1810924;76;21077;-61
2022/01/04 04:54:00;;;;;;;1.35;1.25;;;;;;;11.38;57.64;98440.69;1812080;77;21065;-61
2022/01/04 04:56:26;;;;;;;1.60;1.20;;;;;;;11.37;57.65;98442.51;1812622;78;21604;-61
2022/01/04 04:58:53;;;;;;;1.30;1.20;;;;;;;11.38;57.66;98438.03;1821066;78;21212;-60
2022/01/04 05:01:19;;;;;;;1.98;1.45;;;;;;;11.38;57.65;98446.01;1816939;78;21592;-61
2022/01/04 05:03:46;;;;;;;1.42;1.27;;;;;;;11.37;57.65;98445.17;1803267;76;21100;-60
2022/01/04 05:06:12;;;;;;;2.58;1.50;;;;;;;11.38;57.66;98444.67;1818161;78;21093;-60
2022/01/04 05:08:38;;;;;;;2.50;1.60;;;;;;;11.38;57.66;98446.01;1818776;77;21057;-61
2022/01/04 05:11:08;;;;;;;1.55;1.45;;;;;;;11.38;57.65;98448.67;1798613;76;21068;-60
2022/01/04 05:13:37;;;;;;;1.20;1.10;;;;;;;11.38;57.66;98454.80;1810640;77;21652;-60
2022/01/04 05:16:04;;;;;;;1.40;1.30;;;;;;;11.38;57.65;98456.13;1803508;76;21612;-59
2022/01/04 05:18:32;;;;;;;2.60;1.40;;;;;;;11.38;57.65;98458.78;1822471;78;21025;-60
2022/01/04 05:20:59;;;;;;;1.50;1.20;;;;;;;11.38;57.64;98458.78;1760255;80;21108;-60
2022/01/04 05:23:25;;;;;;;1.40;1.27;;;;;;;11.39;57.65;98455.60;1744984;81;21138;-61
2022/01/04 05:25:52;;;;;;;1.60;1.37;;;;;;;11.38;57.67;98457.45;1800442;76;21033;-60
2022/01/04 05:28:19;;;;;;;1.50;1.40;;;;;;;11.38;57.66;98461.96;1814566;78;21065;-60
2022/01/04 05:30:48;;;;;;;1.65;1.25;;;;;;;11.38;57.67;98464.10;1805081;78;21069;-60
2022/01/04 05:33:14;;;;;;;1.82;1.60;;;;;;;11.38;57.67;98469.94;1816818;78;21077;-60
2022/01/04 05:35:40;;;;;;;1.35;1.20;;;;;;;11.37;57.66;98468.28;1814813;78;22485;-61
2022/01/04 05:38:07;;;;;;;1.72;1.62;;;;;;;11.38;57.70;98469.94;1808343;76;21069;-60
2022/01/04 05:40:34;;;;;;;2.17;1.60;;;;;;;11.39;57.67;98475.55;1798316;78;21029;-60
2022/01/04 05:43:01;;;;;;;1.47;1.25;;;;;;;11.39;57.69;98482.20;1814435;77;21014;-60
2022/01/04 05:45:28;;;;;;;1.70;1.40;;;;;;;11.38;57.69;98481.91;1809869;78;21061;-60
2022/01/04 05:47:55;;;;;;;1.67;1.47;;;;;;;11.38;57.69;98484.05;1817855;77;21174;-60
2022/01/04 05:50:21;;;;;;;1.40;1.30;;;;;;;11.39;57.69;98492.83;1800937;76;22079;-61
2022/01/04 05:52:49;;;;;;;1.50;1.40;;;;;;;11.39;57.70;98490.17;1827896;78;21061;-60
2022/01/04 05:55:17;;;;;;;1.77;1.20;;;;;;;11.39;57.71;98492.31;1797519;76;21053;-60
2022/01/04 05:57:43;;;;;;;1.30;1.20;;;;;;;11.40;57.70;98495.81;1822691;78;21006;-61
2022/01/04 06:00:11;;;;;;;1.30;1.20;;;;;;;11.39;57.71;98488.84;1823919;77;21129;-61
2022/01/04 06:02:39;;;;;;;1.47;1.37;;;;;;;11.39;57.69;98490.98;1801208;76;21490;-60
2022/01/04 06:05:08;;;;;;;1.77;1.55;;;;;;;11.40;57.70;98494.48;1801203;78;21053;-61
2022/01/04 06:07:37;;;;;;;1.40;1.20;;;;;;;11.39;57.70;98502.95;1805005;78;21156;-61
2022/01/04 06:10:06;;;;;;;1.30;1.20;;;;;;;11.40;57.70;98502.45;1825597;77;21005;-60
2022/01/04 06:15:09;;;;;;;1.65;1.50;;;;;;;11.40;57.70;98506.45;1810346;76;21109;-60
2022/01/04 06:17:46;;;;;;;2.42;1.62;;;;;;;11.40;57.70;98513.09;1825881;77;21529;-60
2022/01/04 06:20:15;;;;;;;1.85;1.55;;;;;;;11.40;57.70;98510.44;1823004;77;21080;-61
2022/01/04 06:22:43;;;;;;;1.50;1.32;;;;;;;11.39;57.72;98511.45;1812775;78;21030;-60
2022/01/04 06:25:13;;;;;;;2.35;1.40;;;;;;;11.40;57.72;98526.39;1818640;78;21517;-61
2022/01/04 06:27:47;;;;;;;1.50;1.30;;;;;;;11.39;57.70;98525.55;1809383;76;21611;-61
2022/01/04 06:30:16;;;;;;;1.87;1.60;;;;;;;11.39;57.71;98525.55;1818510;78;22101;-60
2022/01/04 06:32:44;;;;;;;1.72;1.45;;;;;;;11.41;57.74;98534.66;1813261;78;21028;-60
2022/01/04 06:35:13;;;;;;;1.98;1.40;;;;;;;11.39;57.73;98532.20;1797324;78;21616;-62
2022/01/04 06:37:41;;;;;;;1.65;1.40;;;;;;;11.40;57.70;98544.48;1823650;78;21176;-61
2022/01/04 06:40:11;;;;;;;1.80;1.60;;;;;;;11.41;57.72;98539.98;1821911;76;21485;-61
2022/01/04 06:42:39;;;;;;;1.70;1.60;;;;;;;11.41;57.72;98536.83;1810065;76;21076;-60
2022/01/04 06:45:06;;;;;;;1.70;1.60;;;;;;;11.41;57.72;98534.17;1824663;78;21026;-60
2022/01/04 06:47:33;;;;;;;1.72;1.57;;;;;;;11.41;57.72;98537.32;1797901;76;21000;-62
2022/01/04 06:49:59;;;;;;;1.60;1.50;;;;;;;11.41;57.75;98539.98;1796648;77;21055;-61
2022/01/04 06:52:26;;;;;;;1.72;1.62;;;;;;;11.42;57.72;98538.97;1806041;76;21108;-61
2022/01/04 06:54:52;;;;;;;2.27;1.42;;;;;;;11.41;57.74;98538.65;1820839;77;21057;-61
2022/01/04 06:57:20;;;;;;;2.17;1.70;;;;;;;11.41;57.75;98543.48;1800799;76;21735;-62
2022/01/04 06:59:46;;;;;;;2.33;1.95;;;;;;;11.42;57.74;98553.59;1811848;78;21049;-59
2022/01/04 07:02:13;;;;;;;1.60;1.50;;;;;;;11.43;57.73;98554.41;1818295;78;21095;-61
2022/01/04 07:04:40;;;;;;;1.75;1.50;;;;;;;11.43;57.74;98551.23;1827907;76;21101;-60
2022/01/04 07:07:06;;;;;;;1.40;1.20;;;;;;;11.43;57.75;98548.57;1802932;78;21057;-61
2022/01/04 07:09:34;;;;;;;2.12;1.70;;;;;;;11.44;57.74;98550.22;1796685;78;21037;-61
2022/01/04 07:12:00;;;;;;;1.77;1.60;;;;;;;11.45;57.74;98560.34;1802229;77;21026;-59
2022/01/04 07:14:29;;;;;;;1.82;1.42;;;;;;;11.45;57.74;98563.00;1811121;76;21219;-59
2022/01/04 07:16:56;;;;;;;1.87;1.47;;;;;;;11.45;57.74;98563.00;1802755;78;21124;-60
2022/01/04 07:19:23;;;;;;;2.58;1.65;;;;;;;11.45;57.74;98558.49;1796919;78;21088;-62
2022/01/04 07:21:51;;;;;;;2.52;1.65;;;;;;;11.46;57.78;98565.47;1799376;78;21006;-61
2022/01/04 07:24:17;;;;;;;2.60;1.75;;;;;;;11.46;58.02;98558.00;1801396;76;21545;-59
2022/01/04 07:26:44;;;;;;;1.75;1.60;;;;;;;11.46;58.07;98548.17;1805700;78;21144;-59
2022/01/04 07:29:11;;;;;;;3.15;1.52;;;;;;;11.44;58.10;98515.66;1818260;76;21007;-60
2022/01/04 07:31:37;;;;;;;3.33;1.70;;;;;;;11.51;58.43;98528.94;1813508;76;20998;-60
2022/01/04 07:34:04;;;;;;;2.98;1.60;;;;;;;11.57;59.70;98526.79;1802479;76;21065;-59
2022/01/04 07:36:32;;;;;;;5.72;2.02;;;;;;;11.64;61.36;98527.62;1799270;78;21069;-60
2022/01/04 07:38:58;;;;;;;2.58;2.08;;;;;;;11.73;62.98;98538.89;1801044;78;21212;-58
2022/01/04 07:41:26;;;;;;;3.40;2.25;;;;;;;11.81;64.34;98533.35;1802420;78;21029;-61
2022/01/04 07:43:54;;;;;;;3.00;1.95;;;;;;;11.88;65.37;98554.14;1806097;76;21092;-61
2022/01/04 07:46:21;;;;;;;3.05;2.22;;;;;;;11.97;66.17;98566.22;1800776;78;21112;-61
2022/01/04 07:48:49;;;;;;;2.58;1.98;;;;;;;12.04;65.25;98565.41;1816372;78;21073;-62
2022/01/04 07:51:15;;;;;;;2.95;2.00;;;;;;;12.09;65.40;98565.59;1819719;77;21141;-60
2022/01/04 07:53:42;;;;;;;3.27;2.00;;;;;;;12.14;65.67;98564.47;1811815;78;21599;-61
2022/01/04 07:56:09;;;;;;;2.75;2.17;;;;;;;12.17;66.13;98563.55;1797548;76;21076;-62
2022/01/04 07:58:35;;;;;;;5.25;1.90;;;;;;;12.20;66.40;98564.45;1800826;78;21129;-60
2022/01/04 08:01:01;;;;;;;2.80;2.00;;;;;;;12.24;67.00;98568.85;1802571;77;21077;-60
2022/01/04 08:03:30;;;;;;;3.58;2.25;;;;;;;12.25;67.24;98563.84;1810034;77;21089;-60
2022/01/04 08:05:57;;;;;;;2.30;1.82;;;;;;;12.27;67.32;98569.78;1803720;78;21112;-61
2022/01/04 08:08:24;;;;;;;2.85;2.08;;;;;;;12.28;66.84;98562.08;1837513;76;21068;-60
2022/01/04 08:10:52;;;;;;;4.37;2.20;;;;;;;12.29;66.78;98560.26;1757665;80;21017;-62
2022/01/04 08:13:19;;;;;;;3.72;2.22;;;;;;;12.31;66.93;98568.34;1823682;77;21526;-62
2022/01/04 08:15:45;;;;;;;2.47;1.90;;;;;;;12.33;66.99;98578.78;1805968;76;21129;-61
2022/01/04 08:18:11;;;;;;;3.92;2.20;;;;;;;12.33;66.93;98576.94;1813816;76;21049;-60
2022/01/04 08:20:38;;;;;;;3.30;2.42;;;;;;;12.34;66.50;98575.08;1807676;76;21081;-61
2022/01/04 08:23:04;;;;;;;5.35;2.77;;;;;;;12.36;66.39;98576.53;1808388;77;21100;-62
2022/01/04 08:25:31;;;;;;;3.30;2.02;;;;;;;12.37;66.28;98570.68;1801580;76;21074;-61
2022/01/04 08:27:58;;;;;;;2.60;2.15;;;;;;;12.38;66.12;98567.81;1796816;78;21114;-61
2022/01/04 08:30:25;;;;;;;3.42;2.20;;;;;;;12.38;65.85;98565.64;1799459;76;22279;-62
2022/01/04 08:32:53;;;;;;;2.98;2.00;;;;;;;12.39;65.48;98565.45;1796562;78;21112;-61
2022/01/04 08:35:19;;;;;;;2.58;2.10;;;;;;;12.41;65.33;98571.09;1811464;76;21498;-61
2022/01/04 08:37:45;;;;;;;3.17;2.08;;;;;;;12.43;65.03;98570.37;1833974;77;21071;-62
2022/01/04 08:40:12;;;;;;;2.75;2.22;;;;;;;12.43;64.77;98565.03;1810493;76;21117;-62
2022/01/04 08:42:40;;;;;;;2.87;2.25;;;;;;;12.46;64.44;98571.27;1801849;78;21029;-64
2022/01/04 08:45:07;;;;;;;2.98;2.02;;;;;;;12.48;64.16;98562.58;1800574;78;21065;-65
2022/01/04 08:47:33;;;;;;;2.40;1.80;;;;;;;12.50;63.83;98569.32;1801549;78;21077;-64
2022/01/04 08:50:04;;;;;;;3.47;2.22;;;;;;;12.53;63.50;98576.06;1798502;76;21013;-63
2022/01/04 08:52:32;;;;;;;2.72;1.80;;;;;;;12.56;63.15;98569.81;1811356;76;21092;-63
2022/01/04 08:54:59;;;;;;;2.85;1.95;;;;;;;12.58;62.82;98570.42;1813278;76;21014;-64
2022/01/04 08:57:25;;;;;;;2.80;1.90;;;;;;;12.62;62.61;98572.67;1824963;77;21088;-63
2022/01/04 08:59:54;;;;;;;2.42;1.85;;;;;;;12.64;62.27;98579.42;1813509;76;21681;-63
2022/01/04 09:02:22;;;;;;;3.35;1.95;;;;;;;12.67;62.03;98585.67;1823524;76;21325;-64
2022/01/04 09:04:49;;;;;;;3.00;1.70;;;;;;;12.70;61.84;98587.09;1823022;78;21085;-63
2022/01/04 09:07:16;;;;;;;2.27;1.98;;;;;;;12.73;61.62;98584.02;1824070;78;21046;-62
2022/01/04 09:09:43;;;;;;;2.27;1.80;;;;;;;12.76;61.34;98578.25;1818689;76;21081;-63
2022/01/04 09:12:10;;;;;;;4.22;2.25;;;;;;;12.79;61.10;98585.31;1820280;78;21005;-61
2022/01/04 09:14:56;;;;;;;2.05;1.85;;;;;;;12.82;60.85;98584.59;1822351;78;21069;-64
2022/01/04 09:19:57;;;;;;;2.67;2.10;;;;;;;12.88;60.43;98587.73;1822780;76;21549;-63
2022/01/04 09:22:24;;;;;;;2.42;1.80;;;;;;;12.91;60.12;98589.47;1824448;77;21023;-64
2022/01/04 09:24:50;;;;;;;2.98;2.12;;;;;;;12.96;60.02;98583.49;1811666;77;21480;-62
2022/01/04 09:27:17;;;;;;;2.40;1.98;;;;;;;12.99;59.80;98584.41;1821180;78;21051;-62
2022/01/04 09:29:43;;;;;;;2.08;1.72;;;;;;;13.02;59.52;98584.00;1828602;77;21115;-61
2022/01/04 09:32:13;;;;;;;2.55;2.02;;;;;;;13.09;59.41;98591.95;1822743;78;21562;-62
2022/01/04 09:34:38;;;;;;;2.62;2.17;;;;;;;13.13;59.17;98594.00;1819354;77;21496;-62
2022/01/04 09:37:05;;;;;;;2.55;2.00;;;;;;;13.17;59.02;98592.55;1827221;77;20955;-64
2022/01/04 09:39:31;;;;;;;2.50;1.92;;;;;;;13.23;58.74;98595.38;1828784;77;21354;-63
2022/01/04 09:41:59;;;;;;;2.02;1.80;;;;;;;13.26;58.51;98596.29;1824332;77;21135;-65
2022/01/04 09:44:27;;;;;;;4.45;2.08;;;;;;;13.29;58.37;98599.35;1827890;77;21020;-63
2022/01/04 09:46:55;;;;;;;2.87;2.08;;;;;;;13.31;58.21;98607.18;1822755;77;21539;-65
2022/01/04 09:49:22;;;;;;;2.30;1.90;;;;;;;13.32;58.08;98599.46;1823750;77;21015;-64
2022/01/04 09:51:50;;;;;;;2.52;1.85;;;;;;;13.33;58.01;98607.78;1829250;77;21032;-62
2022/01/04 09:54:21;;;;;;;2.92;2.12;;;;;;;13.34;57.99;98605.40;1824840;77;21159;-62
2022/01/04 09:56:48;;;;;;;2.52;2.27;;;;;;;13.33;57.98;98610.45;1825016;76;21081;-61
2022/01/04 09:59:15;;;;;;;3.67;1.90;;;;;;;13.34;58.01;98613.40;1821851;77;21094;-62
2022/01/04 10:01:45;;;;;;;2.62;2.10;;;;;;;13.33;58.02;98599.78;1801800;77;20991;-65
2022/01/04 10:04:12;;;;;;;2.47;2.00;;;;;;;13.32;57.99;98602.12;1824996;78;21127;-64
2022/01/04 10:06:41;;;;;;;2.33;2.00;;;;;;;13.33;58.00;98601.11;1828351;78;21083;-62
2022/01/04 10:09:11;;;;;;;2.52;2.08;;;;;;;13.33;57.91;98603.78;1769038;78;21067;-63
2022/01/04 10:11:42;;;;;;;3.30;2.17;;;;;;;13.34;57.81;98607.55;1828201;76;21008;-64
2022/01/04 10:14:33;;;;;;;3.08;2.25;;;;;;;13.35;57.74;98607.05;1827584;77;21471;-63
2022/01/04 10:17:10;;;;;;;2.95;2.08;;;;;;;13.37;57.70;98612.98;1838429;77;21027;-61
2022/01/04 10:19:42;;;;;;;3.05;2.00;;;;;;;13.39;57.60;98597.58;1828158;77;21035;-62
2022/01/04 10:22:30;;;;;;;2.37;1.80;;;;;;;13.38;57.59;98601.27;1812855;78;21015;-63
2022/01/04 10:25:06;;;;;;;2.75;2.22;;;;;;;13.41;57.52;98600.05;1821798;76;21021;-62
2022/01/04 10:27:46;;;;;;;4.05;2.00;;;;;;;13.42;57.43;98594.99;1821794;76;21085;-61
2022/01/04 10:30:22;;;;;;;3.10;1.90;;;;;;;13.44;57.35;98599.07;1818173;76;21006;-62
2022/01/04 10:32:56;;;;;;;2.22;2.00;;;;;;;13.47;57.19;98599.98;1761218;79;21432;-65
2022/01/04 10:38:16;;;;;;;2.20;1.80;;;;;;;13.65;57.03;98606.45;1884507;76;28332;-64
2022/01/04 10:40:46;;;;;;;2.75;2.12;;;;;;;13.65;56.88;98615.27;1825354;76;21071;-65
2022/01/04 10:43:19;;;;;;;2.35;2.15;;;;;;;13.69;56.62;98603.12;1846831;77;21074;-65
2022/01/04 10:45:47;;;;;;;2.55;2.20;;;;;;;13.71;56.48;98613.58;1858639;77;20961;-67
2022/01/04 10:48:27;;;;;;;2.30;2.10;;;;;;;13.73;56.35;98618.19;1846311;77;21338;-69
2022/01/04 10:51:05;;;;;;;2.65;1.92;;;;;;;13.72;56.28;98615.23;1813380;78;21071;-67
2022/01/04 10:53:39;;;;;;;1.98;1.82;;;;;;;13.72;56.27;98607.23;1788357;79;21573;-67
2022/01/04 10:56:09;;;;;;;2.20;2.00;;;;;;;13.71;56.28;98605.58;1795932;79;21081;-66
2022/01/04 10:58:42;;;;;;;3.10;2.20;;;;;;;13.71;56.31;98605.58;1793681;78;21098;-65
2022/01/04 11:01:11;;;;;;;;;;;;;;;13.69;56.34;98602.31;1806874;78;21517;-66
2022/01/04 11:03:40;;;;;;;2.92;1.82;;;;;;;13.67;56.43;98596.38;1806556;78;20201;-66
2022/01/04 11:06:11;;;;;;;2.50;1.70;;;;;;;13.65;56.53;98600.58;1806947;78;20981;-65
2022/01/04 11:08:38;;;;;;;2.50;2.05;;;;;;;13.64;56.59;98602.16;1784432;80;21201;-67
2022/01/04 11:11:06;;;;;;;2.42;2.20;;;;;;;13.63;56.67;98603.17;1805989;78;21002;-66
2022/01/04 11:13:32;;;;;;;2.52;2.15;;;;;;;13.60;56.67;98601.77;1805906;78;21128;-65
2022/01/04 11:16:01;;;;;;;2.65;1.92;;;;;;;13.60;56.67;98604.44;1809210;78;21005;-65
2022/01/04 11:18:28;;;;;;;2.15;1.82;;;;;;;13.60;56.64;98604.93;1780319;78;21051;-66
2022/01/04 11:20:54;;;;;;;2.60;2.40;;;;;;;13.59;56.65;98601.45;1795526;77;21490;-65
2022/01/04 11:23:27;;;;;;;2.15;1.95;;;;;;;13.60;56.66;98603.10;1778586;80;21069;-66
2022/01/04 11:25:55;;;;;;;2.22;2.02;;;;;;;13.61;56.61;98607.39;1792890;78;21062;-65
2022/01/04 11:28:22;;;;;;;2.10;1.90;;;;;;;13.59;56.59;98602.78;1810239;78;21065;-65
2022/01/04 11:31:03;;;;;;;2.47;2.27;;;;;;;13.61;56.57;98599.38;1791666;78;21576;-67
2022/01/04 11:33:35;;;;;;;2.65;2.05;;;;;;;13.61;56.50;98599.91;1796269;77;21111;-67
2022/01/04 11:36:02;;;;;;;3.40;2.30;;;;;;;13.62;56.49;98602.37;1764393;80;21061;-66
2022/01/04 11:38:34;;;;;;;2.35;1.87;;;;;;;13.64;56.47;98596.30;1840177;77;21559;-64
2022/01/04 11:41:01;;;;;;;2.37;2.17;;;;;;;13.67;56.43;98601.70;1834905;77;21496;-65
2022/01/04 11:43:33;;;;;;;2.17;1.92;;;;;;;13.69;56.30;98599.64;1827986;77;21036;-64
2022/01/04 11:45:59;;;;;;;3.65;2.58;;;;;;;13.71;56.17;98605.08;1826164;77;21092;-65
2022/01/04 11:48:44;;;;;;;2.10;1.77;;;;;;;13.73;56.08;98603.02;1827474;77;21104;-64
2022/01/04 11:51:11;;;;;;;2.27;2.08;;;;;;;13.75;56.00;98610.78;1842278;77;21540;-65